クチン の空港の天気 - METARとTAF

クチン国際空港 ( WBGG / KCH ) - マレーシア サラワク州クチン
飛行場実況気象(Metar)
観測時間12/16 15:00 MYT (12/16 07:00 UTC)
風向・風速不定 1m/s
視程10km以上
天気現象
全天の4割程度の雲 雲底高度 550m
全天の4割程度の雲 雲底高度 4570m
全天の8割程度の雲 雲底高度 9140m
気温32℃
湿度67%
気圧1006hPa
METARWBGG 160700Z VRB01KT 9999 SCT018 SCT150 BKN300 32/25 Q1006 NOSIG
過去の天気等 Google飛行場航空写真 Wunderground天気予報

過去48時間のMETAR

飛行場予報(TAF)
発表時間: 12/16 13:00 MYT (12/16 05:00 UTC)
予報対象時間: 16日14時 MYT ~ 17日14時 MYT
風向・風速西 3m/s
視程10km以上
全天の4割程度の雲 雲底高度 610m
16日14時 MYT ~ 16日18時 MYT に一時的に
視程4000m
天気現象雷雨
少しの積乱雲 雲底高度 460m
TAF WBGG 160500Z 1606/1706 26005KT 9999 SCT020
TEMPO 1606/1610 4000 TSRA FEW015CB